sensor_id;sensor_type;location;lat;lon;timestamp;temperature;humidity
62339;DHT22;48368;53.406;6.214;2023-08-01T00:02:25;16.20;99.90
62339;DHT22;48368;53.406;6.214;2023-08-01T00:04:50;16.30;99.90
62339;DHT22;48368;53.406;6.214;2023-08-01T00:07:16;16.20;99.90
62339;DHT22;48368;53.406;6.214;2023-08-01T00:09:42;16.30;99.90
62339;DHT22;48368;53.406;6.214;2023-08-01T00:12:10;16.20;99.90
62339;DHT22;48368;53.406;6.214;2023-08-01T00:14:36;16.20;99.90
62339;DHT22;48368;53.406;6.214;2023-08-01T00:17:02;16.30;99.90
62339;DHT22;48368;53.406;6.214;2023-08-01T00:19:28;16.30;99.90
62339;DHT22;48368;53.406;6.214;2023-08-01T00:21:53;16.10;99.90
62339;DHT22;48368;53.406;6.214;2023-08-01T00:24:19;16.20;99.90
62339;DHT22;48368;53.406;6.214;2023-08-01T00:26:44;16.10;99.90
62339;DHT22;48368;53.406;6.214;2023-08-01T00:29:10;16.20;99.90
62339;DHT22;48368;53.406;6.214;2023-08-01T00:31:36;16.20;99.90
62339;DHT22;48368;53.406;6.214;2023-08-01T00:34:01;16.10;99.90
62339;DHT22;48368;53.406;6.214;2023-08-01T00:36:27;16.20;99.90
62339;DHT22;48368;53.406;6.214;2023-08-01T00:38:52;16.00;99.90
62339;DHT22;48368;53.406;6.214;2023-08-01T00:41:18;16.20;99.90
62339;DHT22;48368;53.406;6.214;2023-08-01T00:43:44;16.10;99.90
62339;DHT22;48368;53.406;6.214;2023-08-01T00:46:10;16.00;99.90
62339;DHT22;48368;53.406;6.214;2023-08-01T00:48:35;16.00;99.90
62339;DHT22;48368;53.406;6.214;2023-08-01T00:51:17;16.00;99.90
62339;DHT22;48368;53.406;6.214;2023-08-01T00:53:43;16.00;99.90
62339;DHT22;48368;53.406;6.214;2023-08-01T00:56:11;15.90;99.90
62339;DHT22;48368;53.406;6.214;2023-08-01T00:58:36;15.80;99.90
62339;DHT22;48368;53.406;6.214;2023-08-01T01:01:02;15.90;99.90
62339;DHT22;48368;53.406;6.214;2023-08-01T01:03:31;15.80;99.90
62339;DHT22;48368;53.406;6.214;2023-08-01T01:08:36;15.80;99.90
62339;DHT22;48368;53.406;6.214;2023-08-01T01:11:01;15.70;99.90
62339;DHT22;48368;53.406;6.214;2023-08-01T01:13:27;15.70;99.90
62339;DHT22;48368;53.406;6.214;2023-08-01T01:15:53;15.70;99.90
62339;DHT22;48368;53.406;6.214;2023-08-01T01:18:18;15.70;99.90
62339;DHT22;48368;53.406;6.214;2023-08-01T01:20:44;15.70;99.90
62339;DHT22;48368;53.406;6.214;2023-08-01T01:23:10;15.70;99.90
62339;DHT22;48368;53.406;6.214;2023-08-01T01:25:37;15.70;99.90
62339;DHT22;48368;53.406;6.214;2023-08-01T01:28:07;15.50;99.90
62339;DHT22;48368;53.406;6.214;2023-08-01T01:30:34;15.50;99.90
62339;DHT22;48368;53.406;6.214;2023-08-01T01:33:00;15.60;99.90
62339;DHT22;48368;53.406;6.214;2023-08-01T01:35:27;15.50;99.90
62339;DHT22;48368;53.406;6.214;2023-08-01T01:37:58;15.60;99.90
62339;DHT22;48368;53.406;6.214;2023-08-01T01:40:29;15.60;99.90
62339;DHT22;48368;53.406;6.214;2023-08-01T01:42:55;15.50;99.90
62339;DHT22;48368;53.406;6.214;2023-08-01T01:45:21;15.50;99.90
62339;DHT22;48368;53.406;6.214;2023-08-01T01:47:46;15.50;99.90
62339;DHT22;48368;53.406;6.214;2023-08-01T01:50:12;15.50;99.90
62339;DHT22;48368;53.406;6.214;2023-08-01T01:52:38;15.40;99.90
62339;DHT22;48368;53.406;6.214;2023-08-01T01:55:03;15.40;99.90
62339;DHT22;48368;53.406;6.214;2023-08-01T01:57:29;15.40;99.90
62339;DHT22;48368;53.406;6.214;2023-08-01T01:59:55;15.30;99.90
62339;DHT22;48368;53.406;6.214;2023-08-01T02:02:20;15.30;99.90
62339;DHT22;48368;53.406;6.214;2023-08-01T02:04:47;15.40;99.90
62339;DHT22;48368;53.406;6.214;2023-08-01T02:07:13;15.40;99.90
62339;DHT22;48368;53.406;6.214;2023-08-01T02:09:40;15.30;99.90
62339;DHT22;48368;53.406;6.214;2023-08-01T02:12:05;15.40;99.90
62339;DHT22;48368;53.406;6.214;2023-08-01T02:14:33;15.30;99.90
62339;DHT22;48368;53.406;6.214;2023-08-01T02:16:59;15.30;99.90
62339;DHT22;48368;53.406;6.214;2023-08-01T02:19:24;15.40;99.90
62339;DHT22;48368;53.406;6.214;2023-08-01T02:21:50;15.30;99.90
62339;DHT22;48368;53.406;6.214;2023-08-01T02:24:16;15.30;99.90
62339;DHT22;48368;53.406;6.214;2023-08-01T02:26:41;15.30;99.90
62339;DHT22;48368;53.406;6.214;2023-08-01T02:29:07;15.40;99.90
62339;DHT22;48368;53.406;6.214;2023-08-01T02:31:32;15.30;99.90
62339;DHT22;48368;53.406;6.214;2023-08-01T02:33:58;15.30;99.90
62339;DHT22;48368;53.406;6.214;2023-08-01T02:36:24;15.40;99.90
62339;DHT22;48368;53.406;6.214;2023-08-01T02:38:49;15.30;99.90
62339;DHT22;48368;53.406;6.214;2023-08-01T02:41:15;15.30;99.90
62339;DHT22;48368;53.406;6.214;2023-08-01T02:43:40;15.30;99.90
62339;DHT22;48368;53.406;6.214;2023-08-01T02:46:06;15.30;99.90
62339;DHT22;48368;53.406;6.214;2023-08-01T02:48:32;15.30;99.90
62339;DHT22;48368;53.406;6.214;2023-08-01T02:50:58;15.40;99.90
62339;DHT22;48368;53.406;6.214;2023-08-01T02:53:24;15.30;99.90
62339;DHT22;48368;53.406;6.214;2023-08-01T02:55:50;15.20;99.90
62339;DHT22;48368;53.406;6.214;2023-08-01T02:58:18;15.40;99.90
62339;DHT22;48368;53.406;6.214;2023-08-01T03:00:44;15.30;99.90
62339;DHT22;48368;53.406;6.214;2023-08-01T03:03:10;15.30;99.90
62339;DHT22;48368;53.406;6.214;2023-08-01T03:05:38;15.40;99.90
62339;DHT22;48368;53.406;6.214;2023-08-01T03:08:04;15.30;99.90
62339;DHT22;48368;53.406;6.214;2023-08-01T03:10:30;15.30;99.90
62339;DHT22;48368;53.406;6.214;2023-08-01T03:12:56;15.20;99.90
62339;DHT22;48368;53.406;6.214;2023-08-01T03:15:24;15.40;99.90
62339;DHT22;48368;53.406;6.214;2023-08-01T03:17:50;15.30;99.90
62339;DHT22;48368;53.406;6.214;2023-08-01T03:20:15;15.30;99.90
62339;DHT22;48368;53.406;6.214;2023-08-01T03:22:44;15.20;99.90
62339;DHT22;48368;53.406;6.214;2023-08-01T03:25:10;15.30;99.90
62339;DHT22;48368;53.406;6.214;2023-08-01T03:27:36;15.30;99.90
62339;DHT22;48368;53.406;6.214;2023-08-01T03:30:02;15.30;99.90
62339;DHT22;48368;53.406;6.214;2023-08-01T03:32:29;15.40;99.90
62339;DHT22;48368;53.406;6.214;2023-08-01T03:34:55;15.30;99.90
62339;DHT22;48368;53.406;6.214;2023-08-01T03:37:21;15.30;99.90
62339;DHT22;48368;53.406;6.214;2023-08-01T03:39:46;15.30;99.90
62339;DHT22;48368;53.406;6.214;2023-08-01T03:42:12;15.30;99.90
62339;DHT22;48368;53.406;6.214;2023-08-01T03:44:37;15.30;99.90
62339;DHT22;48368;53.406;6.214;2023-08-01T03:47:03;15.30;99.90
62339;DHT22;48368;53.406;6.214;2023-08-01T03:49:29;15.40;99.90
62339;DHT22;48368;53.406;6.214;2023-08-01T03:51:55;15.40;99.90
62339;DHT22;48368;53.406;6.214;2023-08-01T03:54:20;15.40;99.90
62339;DHT22;48368;53.406;6.214;2023-08-01T03:56:46;15.30;99.90
62339;DHT22;48368;53.406;6.214;2023-08-01T03:59:13;15.20;99.90
62339;DHT22;48368;53.406;6.214;2023-08-01T04:01:39;15.20;99.90
62339;DHT22;48368;53.406;6.214;2023-08-01T04:04:09;15.20;99.90
62339;DHT22;48368;53.406;6.214;2023-08-01T04:06:35;15.20;99.90
62339;DHT22;48368;53.406;6.214;2023-08-01T04:09:01;15.20;99.90
62339;DHT22;48368;53.406;6.214;2023-08-01T04:11:27;15.10;99.90
62339;DHT22;48368;53.406;6.214;2023-08-01T04:13:53;15.10;99.90
62339;DHT22;48368;53.406;6.214;2023-08-01T04:16:19;15.20;99.90
62339;DHT22;48368;53.406;6.214;2023-08-01T04:18:45;15.20;99.90
62339;DHT22;48368;53.406;6.214;2023-08-01T04:21:17;15.20;99.90
62339;DHT22;48368;53.406;6.214;2023-08-01T04:23:43;15.20;99.90
62339;DHT22;48368;53.406;6.214;2023-08-01T04:26:09;15.20;99.90
62339;DHT22;48368;53.406;6.214;2023-08-01T04:28:35;15.20;99.90
62339;DHT22;48368;53.406;6.214;2023-08-01T04:31:00;15.20;99.90
62339;DHT22;48368;53.406;6.214;2023-08-01T04:33:26;15.20;99.90
62339;DHT22;48368;53.406;6.214;2023-08-01T04:35:54;15.20;99.90
62339;DHT22;48368;53.406;6.214;2023-08-01T04:38:20;15.30;99.90
62339;DHT22;48368;53.406;6.214;2023-08-01T04:40:46;15.40;99.90
62339;DHT22;48368;53.406;6.214;2023-08-01T04:43:13;15.40;99.90
62339;DHT22;48368;53.406;6.214;2023-08-01T04:45:39;15.30;99.90
62339;DHT22;48368;53.406;6.214;2023-08-01T04:48:05;15.40;99.90
62339;DHT22;48368;53.406;6.214;2023-08-01T04:50:30;15.40;99.90
62339;DHT22;48368;53.406;6.214;2023-08-01T04:52:56;15.30;99.90
62339;DHT22;48368;53.406;6.214;2023-08-01T04:55:22;15.30;99.90
62339;DHT22;48368;53.406;6.214;2023-08-01T04:57:47;15.30;99.90
62339;DHT22;48368;53.406;6.214;2023-08-01T05:00:13;15.20;99.90
62339;DHT22;48368;53.406;6.214;2023-08-01T05:02:39;15.20;99.90
62339;DHT22;48368;53.406;6.214;2023-08-01T05:05:06;15.20;99.90
62339;DHT22;48368;53.406;6.214;2023-08-01T05:07:32;15.20;99.90
62339;DHT22;48368;53.406;6.214;2023-08-01T05:09:58;15.20;99.90
62339;DHT22;48368;53.406;6.214;2023-08-01T05:12:23;15.10;99.90
62339;DHT22;48368;53.406;6.214;2023-08-01T05:14:49;15.10;99.90
62339;DHT22;48368;53.406;6.214;2023-08-01T05:17:15;14.90;99.90
62339;DHT22;48368;53.406;6.214;2023-08-01T05:19:40;14.90;99.90
62339;DHT22;48368;53.406;6.214;2023-08-01T05:22:06;14.90;99.90
62339;DHT22;48368;53.406;6.214;2023-08-01T05:24:32;14.90;99.90
62339;DHT22;48368;53.406;6.214;2023-08-01T05:26:57;14.90;99.90
62339;DHT22;48368;53.406;6.214;2023-08-01T05:29:23;14.90;99.90
62339;DHT22;48368;53.406;6.214;2023-08-01T05:31:48;14.90;99.90
62339;DHT22;48368;53.406;6.214;2023-08-01T05:34:14;14.80;99.90
62339;DHT22;48368;53.406;6.214;2023-08-01T05:36:40;14.90;99.90
62339;DHT22;48368;53.406;6.214;2023-08-01T05:39:05;15.00;99.90
62339;DHT22;48368;53.406;6.214;2023-08-01T05:41:31;14.90;99.90
62339;DHT22;48368;53.406;6.214;2023-08-01T05:43:57;15.00;99.90
62339;DHT22;48368;53.406;6.214;2023-08-01T05:46:23;15.00;99.90
62339;DHT22;48368;53.406;6.214;2023-08-01T05:48:48;15.00;99.90
62339;DHT22;48368;53.406;6.214;2023-08-01T05:51:14;15.10;99.90
62339;DHT22;48368;53.406;6.214;2023-08-01T05:53:43;15.10;99.90
62339;DHT22;48368;53.406;6.214;2023-08-01T05:56:08;15.00;99.90
62339;DHT22;48368;53.406;6.214;2023-08-01T05:58:34;15.10;99.90
62339;DHT22;48368;53.406;6.214;2023-08-01T06:01:00;15.10;99.90
62339;DHT22;48368;53.406;6.214;2023-08-01T06:03:25;15.10;99.90
62339;DHT22;48368;53.406;6.214;2023-08-01T06:05:51;15.20;99.90
62339;DHT22;48368;53.406;6.214;2023-08-01T06:08:17;15.30;99.90
62339;DHT22;48368;53.406;6.214;2023-08-01T06:10:42;15.30;99.90
62339;DHT22;48368;53.406;6.214;2023-08-01T06:13:08;15.50;99.90
62339;DHT22;48368;53.406;6.214;2023-08-01T06:15:40;15.60;99.90
62339;DHT22;48368;53.406;6.214;2023-08-01T06:18:06;15.50;99.90
62339;DHT22;48368;53.406;6.214;2023-08-01T06:20:31;15.40;99.90
62339;DHT22;48368;53.406;6.214;2023-08-01T06:22:57;15.50;99.90
62339;DHT22;48368;53.406;6.214;2023-08-01T06:25:23;15.50;99.90
62339;DHT22;48368;53.406;6.214;2023-08-01T06:27:48;15.60;99.90
62339;DHT22;48368;53.406;6.214;2023-08-01T06:30:14;15.70;99.90
62339;DHT22;48368;53.406;6.214;2023-08-01T06:32:39;16.00;99.90
62339;DHT22;48368;53.406;6.214;2023-08-01T06:35:06;16.20;99.90
62339;DHT22;48368;53.406;6.214;2023-08-01T06:37:31;16.10;99.90
62339;DHT22;48368;53.406;6.214;2023-08-01T06:39:58;16.10;99.90
62339;DHT22;48368;53.406;6.214;2023-08-01T06:42:24;16.20;99.90
62339;DHT22;48368;53.406;6.214;2023-08-01T06:44:50;16.10;99.90
62339;DHT22;48368;53.406;6.214;2023-08-01T06:47:16;16.10;99.90
62339;DHT22;48368;53.406;6.214;2023-08-01T06:49:44;16.10;99.90
62339;DHT22;48368;53.406;6.214;2023-08-01T06:52:10;16.10;99.90
62339;DHT22;48368;53.406;6.214;2023-08-01T06:54:36;16.10;99.90
62339;DHT22;48368;53.406;6.214;2023-08-01T06:57:02;16.10;99.90
62339;DHT22;48368;53.406;6.214;2023-08-01T06:59:27;16.10;99.90
62339;DHT22;48368;53.406;6.214;2023-08-01T07:01:53;16.00;99.90
62339;DHT22;48368;53.406;6.214;2023-08-01T07:04:19;16.10;99.90
62339;DHT22;48368;53.406;6.214;2023-08-01T07:06:46;16.00;99.90
62339;DHT22;48368;53.406;6.214;2023-08-01T07:09:12;15.90;99.90
62339;DHT22;48368;53.406;6.214;2023-08-01T07:11:37;15.90;99.90
62339;DHT22;48368;53.406;6.214;2023-08-01T07:14:03;15.70;99.90
62339;DHT22;48368;53.406;6.214;2023-08-01T07:16:29;15.70;99.90
62339;DHT22;48368;53.406;6.214;2023-08-01T07:18:55;15.80;99.90
62339;DHT22;48368;53.406;6.214;2023-08-01T07:21:21;15.70;99.90
62339;DHT22;48368;53.406;6.214;2023-08-01T07:23:46;15.70;99.90
62339;DHT22;48368;53.406;6.214;2023-08-01T07:26:14;15.70;99.90
62339;DHT22;48368;53.406;6.214;2023-08-01T07:28:39;15.60;99.90
62339;DHT22;48368;53.406;6.214;2023-08-01T07:31:06;15.70;99.90
62339;DHT22;48368;53.406;6.214;2023-08-01T07:33:33;15.60;99.90
62339;DHT22;48368;53.406;6.214;2023-08-01T07:36:00;15.60;99.90
62339;DHT22;48368;53.406;6.214;2023-08-01T07:38:25;15.70;99.90
62339;DHT22;48368;53.406;6.214;2023-08-01T07:40:54;15.70;99.90
62339;DHT22;48368;53.406;6.214;2023-08-01T07:43:20;15.70;99.90
62339;DHT22;48368;53.406;6.214;2023-08-01T07:45:46;15.80;99.90
62339;DHT22;48368;53.406;6.214;2023-08-01T07:48:12;15.90;99.90
62339;DHT22;48368;53.406;6.214;2023-08-01T07:50:37;16.00;99.90
62339;DHT22;48368;53.406;6.214;2023-08-01T07:55:38;16.30;99.90
62339;DHT22;48368;53.406;6.214;2023-08-01T07:58:04;16.40;99.90
62339;DHT22;48368;53.406;6.214;2023-08-01T08:00:30;16.30;99.90
62339;DHT22;48368;53.406;6.214;2023-08-01T08:02:56;16.50;99.90
62339;DHT22;48368;53.406;6.214;2023-08-01T08:05:21;16.40;99.90
62339;DHT22;48368;53.406;6.214;2023-08-01T08:07:47;16.20;99.90
62339;DHT22;48368;53.406;6.214;2023-08-01T08:10:13;16.10;99.90
62339;DHT22;48368;53.406;6.214;2023-08-01T08:12:39;16.00;99.90
62339;DHT22;48368;53.406;6.214;2023-08-01T08:15:05;16.10;99.90
62339;DHT22;48368;53.406;6.214;2023-08-01T08:17:34;16.00;99.90
62339;DHT22;48368;53.406;6.214;2023-08-01T08:19:59;16.20;99.90
62339;DHT22;48368;53.406;6.214;2023-08-01T08:22:25;16.30;99.90
62339;DHT22;48368;53.406;6.214;2023-08-01T08:24:51;16.20;99.90
62339;DHT22;48368;53.406;6.214;2023-08-01T08:27:17;16.30;99.90
62339;DHT22;48368;53.406;6.214;2023-08-01T08:29:42;16.30;99.90
62339;DHT22;48368;53.406;6.214;2023-08-01T08:32:08;16.20;99.90
62339;DHT22;48368;53.406;6.214;2023-08-01T08:34:34;16.10;99.90
62339;DHT22;48368;53.406;6.214;2023-08-01T08:36:59;16.50;99.90
62339;DHT22;48368;53.406;6.214;2023-08-01T08:39:25;16.40;99.90
62339;DHT22;48368;53.406;6.214;2023-08-01T08:41:52;16.20;99.90
62339;DHT22;48368;53.406;6.214;2023-08-01T08:44:21;16.00;99.90
62339;DHT22;48368;53.406;6.214;2023-08-01T08:46:51;16.10;99.90
62339;DHT22;48368;53.406;6.214;2023-08-01T08:49:20;16.00;99.90
62339;DHT22;48368;53.406;6.214;2023-08-01T08:51:47;15.90;99.90
62339;DHT22;48368;53.406;6.214;2023-08-01T08:54:14;15.90;99.90
62339;DHT22;48368;53.406;6.214;2023-08-01T08:56:42;15.90;99.90
62339;DHT22;48368;53.406;6.214;2023-08-01T08:59:10;16.10;99.90
62339;DHT22;48368;53.406;6.214;2023-08-01T09:01:39;16.10;99.90
62339;DHT22;48368;53.406;6.214;2023-08-01T09:04:06;16.40;99.90
62339;DHT22;48368;53.406;6.214;2023-08-01T09:06:46;16.50;99.90
62339;DHT22;48368;53.406;6.214;2023-08-01T09:09:13;16.40;99.90
62339;DHT22;48368;53.406;6.214;2023-08-01T09:11:49;16.60;99.90
62339;DHT22;48368;53.406;6.214;2023-08-01T09:14:16;16.60;99.90
62339;DHT22;48368;53.406;6.214;2023-08-01T09:16:43;16.70;99.90
62339;DHT22;48368;53.406;6.214;2023-08-01T09:19:09;16.90;99.90
62339;DHT22;48368;53.406;6.214;2023-08-01T09:21:36;16.90;99.90
62339;DHT22;48368;53.406;6.214;2023-08-01T09:24:12;17.10;99.90
62339;DHT22;48368;53.406;6.214;2023-08-01T09:26:39;17.30;99.90
62339;DHT22;48368;53.406;6.214;2023-08-01T09:29:05;17.40;99.90
62339;DHT22;48368;53.406;6.214;2023-08-01T09:31:37;17.40;99.90
62339;DHT22;48368;53.406;6.214;2023-08-01T09:34:04;17.30;99.90
62339;DHT22;48368;53.406;6.214;2023-08-01T09:36:31;17.00;99.90
62339;DHT22;48368;53.406;6.214;2023-08-01T09:39:01;16.90;99.90
62339;DHT22;48368;53.406;6.214;2023-08-01T09:41:29;16.80;99.90
62339;DHT22;48368;53.406;6.214;2023-08-01T09:43:58;16.90;99.90
62339;DHT22;48368;53.406;6.214;2023-08-01T09:46:24;16.90;99.90
62339;DHT22;48368;53.406;6.214;2023-08-01T09:48:50;17.00;99.90
62339;DHT22;48368;53.406;6.214;2023-08-01T09:51:17;17.20;99.90
62339;DHT22;48368;53.406;6.214;2023-08-01T09:53:51;17.30;99.90
62339;DHT22;48368;53.406;6.214;2023-08-01T09:56:24;17.50;99.90
62339;DHT22;48368;53.406;6.214;2023-08-01T09:58:51;17.60;99.90
62339;DHT22;48368;53.406;6.214;2023-08-01T10:01:22;17.60;99.90
62339;DHT22;48368;53.406;6.214;2023-08-01T10:03:49;17.70;99.90
62339;DHT22;48368;53.406;6.214;2023-08-01T10:06:20;17.90;99.90
62339;DHT22;48368;53.406;6.214;2023-08-01T10:08:47;17.90;99.90
62339;DHT22;48368;53.406;6.214;2023-08-01T10:11:16;17.80;99.90
62339;DHT22;48368;53.406;6.214;2023-08-01T10:13:45;17.70;99.90
62339;DHT22;48368;53.406;6.214;2023-08-01T10:16:12;17.70;99.90
62339;DHT22;48368;53.406;6.214;2023-08-01T10:18:39;17.70;99.90
62339;DHT22;48368;53.406;6.214;2023-08-01T10:21:12;17.70;99.90
62339;DHT22;48368;53.406;6.214;2023-08-01T10:23:39;17.80;99.90
62339;DHT22;48368;53.406;6.214;2023-08-01T10:26:07;17.80;99.90
62339;DHT22;48368;53.406;6.214;2023-08-01T10:28:39;18.00;99.90
62339;DHT22;48368;53.406;6.214;2023-08-01T10:31:14;18.20;99.90
62339;DHT22;48368;53.406;6.214;2023-08-01T10:33:47;18.30;99.90
62339;DHT22;48368;53.406;6.214;2023-08-01T10:36:23;18.40;99.90
62339;DHT22;48368;53.406;6.214;2023-08-01T10:38:58;18.40;99.90
62339;DHT22;48368;53.406;6.214;2023-08-01T10:41:31;18.60;99.90
62339;DHT22;48368;53.406;6.214;2023-08-01T10:44:24;18.60;99.90
62339;DHT22;48368;53.406;6.214;2023-08-01T10:49:21;18.40;99.90
62339;DHT22;48368;53.406;6.214;2023-08-01T10:51:49;18.50;99.90
62339;DHT22;48368;53.406;6.214;2023-08-01T10:54:27;18.50;99.90
62339;DHT22;48368;53.406;6.214;2023-08-01T10:56:56;18.50;99.90
62339;DHT22;48368;53.406;6.214;2023-08-01T10:59:25;18.50;99.90
62339;DHT22;48368;53.406;6.214;2023-08-01T11:01:53;18.50;99.90
62339;DHT22;48368;53.406;6.214;2023-08-01T11:04:23;18.50;99.90
62339;DHT22;48368;53.406;6.214;2023-08-01T11:06:53;18.70;99.90
62339;DHT22;48368;53.406;6.214;2023-08-01T11:09:25;18.80;99.90
62339;DHT22;48368;53.406;6.214;2023-08-01T11:12:00;18.90;99.90
62339;DHT22;48368;53.406;6.214;2023-08-01T11:14:27;19.00;99.90
62339;DHT22;48368;53.406;6.214;2023-08-01T11:16:57;19.00;99.90
62339;DHT22;48368;53.406;6.214;2023-08-01T11:19:27;18.90;99.90
62339;DHT22;48368;53.406;6.214;2023-08-01T11:21:53;18.90;99.90
62339;DHT22;48368;53.406;6.214;2023-08-01T11:24:24;19.10;99.90
62339;DHT22;48368;53.406;6.214;2023-08-01T11:26:52;18.90;99.90
62339;DHT22;48368;53.406;6.214;2023-08-01T11:29:19;18.80;99.90
62339;DHT22;48368;53.406;6.214;2023-08-01T11:31:58;18.80;99.90
62339;DHT22;48368;53.406;6.214;2023-08-01T11:34:25;18.80;99.90
62339;DHT22;48368;53.406;6.214;2023-08-01T11:36:51;18.70;99.90
62339;DHT22;48368;53.406;6.214;2023-08-01T11:39:17;18.80;99.90
62339;DHT22;48368;53.406;6.214;2023-08-01T11:41:44;18.70;99.90
62339;DHT22;48368;53.406;6.214;2023-08-01T11:44:10;18.80;99.90
62339;DHT22;48368;53.406;6.214;2023-08-01T11:46:37;18.90;99.90
62339;DHT22;48368;53.406;6.214;2023-08-01T11:49:07;18.90;99.90
62339;DHT22;48368;53.406;6.214;2023-08-01T11:51:44;18.90;99.90
62339;DHT22;48368;53.406;6.214;2023-08-01T11:54:10;18.90;99.90
62339;DHT22;48368;53.406;6.214;2023-08-01T11:56:42;18.90;99.90
62339;DHT22;48368;53.406;6.214;2023-08-01T11:59:16;18.80;99.90
62339;DHT22;48368;53.406;6.214;2023-08-01T12:01:43;18.80;99.90
62339;DHT22;48368;53.406;6.214;2023-08-01T12:04:26;18.70;99.90
62339;DHT22;48368;53.406;6.214;2023-08-01T12:06:52;18.60;99.90
62339;DHT22;48368;53.406;6.214;2023-08-01T12:09:19;18.50;99.90
62339;DHT22;48368;53.406;6.214;2023-08-01T12:11:46;18.60;99.90
62339;DHT22;48368;53.406;6.214;2023-08-01T12:14:13;18.70;99.90
62339;DHT22;48368;53.406;6.214;2023-08-01T12:16:46;18.60;99.90
62339;DHT22;48368;53.406;6.214;2023-08-01T12:19:19;18.40;99.90
62339;DHT22;48368;53.406;6.214;2023-08-01T12:21:45;18.30;99.90
62339;DHT22;48368;53.406;6.214;2023-08-01T12:24:11;18.40;99.90
62339;DHT22;48368;53.406;6.214;2023-08-01T12:26:36;18.40;99.90
62339;DHT22;48368;53.406;6.214;2023-08-01T12:29:02;18.40;99.90
62339;DHT22;48368;53.406;6.214;2023-08-01T12:31:28;18.40;99.90
62339;DHT22;48368;53.406;6.214;2023-08-01T12:33:54;18.30;99.90
62339;DHT22;48368;53.406;6.214;2023-08-01T12:36:20;18.50;99.90
62339;DHT22;48368;53.406;6.214;2023-08-01T12:38:46;18.70;99.90
62339;DHT22;48368;53.406;6.214;2023-08-01T12:41:12;18.70;99.90
62339;DHT22;48368;53.406;6.214;2023-08-01T12:43:37;18.80;99.90
62339;DHT22;48368;53.406;6.214;2023-08-01T12:46:03;18.90;99.90
62339;DHT22;48368;53.406;6.214;2023-08-01T12:48:29;19.00;99.90
62339;DHT22;48368;53.406;6.214;2023-08-01T12:50:55;19.00;99.90
62339;DHT22;48368;53.406;6.214;2023-08-01T12:53:22;19.10;99.90
62339;DHT22;48368;53.406;6.214;2023-08-01T12:55:49;19.00;99.90
62339;DHT22;48368;53.406;6.214;2023-08-01T12:58:17;19.00;99.90
62339;DHT22;48368;53.406;6.214;2023-08-01T13:00:44;19.00;99.90
62339;DHT22;48368;53.406;6.214;2023-08-01T13:03:10;19.00;99.90
62339;DHT22;48368;53.406;6.214;2023-08-01T13:05:38;19.30;99.90
62339;DHT22;48368;53.406;6.214;2023-08-01T13:08:04;19.20;99.90
62339;DHT22;48368;53.406;6.214;2023-08-01T13:10:31;18.90;99.90
62339;DHT22;48368;53.406;6.214;2023-08-01T13:12:57;18.70;99.90
62339;DHT22;48368;53.406;6.214;2023-08-01T13:15:23;18.50;99.90
62339;DHT22;48368;53.406;6.214;2023-08-01T13:17:50;18.40;99.90
62339;DHT22;48368;53.406;6.214;2023-08-01T13:20:16;18.40;99.90
62339;DHT22;48368;53.406;6.214;2023-08-01T13:22:42;18.40;99.90
62339;DHT22;48368;53.406;6.214;2023-08-01T13:25:08;18.40;99.90
62339;DHT22;48368;53.406;6.214;2023-08-01T13:27:35;18.40;99.90
62339;DHT22;48368;53.406;6.214;2023-08-01T13:30:01;18.60;99.90
62339;DHT22;48368;53.406;6.214;2023-08-01T13:32:27;18.50;99.90
62339;DHT22;48368;53.406;6.214;2023-08-01T13:34:53;18.60;99.90
62339;DHT22;48368;53.406;6.214;2023-08-01T13:37:19;18.60;99.90
62339;DHT22;48368;53.406;6.214;2023-08-01T13:39:44;18.70;99.90
62339;DHT22;48368;53.406;6.214;2023-08-01T13:42:12;18.70;99.90
62339;DHT22;48368;53.406;6.214;2023-08-01T13:44:37;18.70;99.90
62339;DHT22;48368;53.406;6.214;2023-08-01T13:47:03;18.70;99.90
62339;DHT22;48368;53.406;6.214;2023-08-01T13:49:29;18.70;99.90
62339;DHT22;48368;53.406;6.214;2023-08-01T13:51:55;18.50;99.90
62339;DHT22;48368;53.406;6.214;2023-08-01T13:54:24;18.50;99.90
62339;DHT22;48368;53.406;6.214;2023-08-01T13:56:51;18.50;99.90
62339;DHT22;48368;53.406;6.214;2023-08-01T13:59:18;18.40;99.90
62339;DHT22;48368;53.406;6.214;2023-08-01T14:01:45;18.50;99.90
62339;DHT22;48368;53.406;6.214;2023-08-01T14:04:11;18.50;99.90
62339;DHT22;48368;53.406;6.214;2023-08-01T14:06:40;18.50;99.90
62339;DHT22;48368;53.406;6.214;2023-08-01T14:09:07;18.30;99.90
62339;DHT22;48368;53.406;6.214;2023-08-01T14:11:34;18.30;99.90
62339;DHT22;48368;53.406;6.214;2023-08-01T14:14:03;18.40;99.90
62339;DHT22;48368;53.406;6.214;2023-08-01T14:16:29;18.60;99.90
62339;DHT22;48368;53.406;6.214;2023-08-01T14:18:55;18.60;99.90
62339;DHT22;48368;53.406;6.214;2023-08-01T14:21:20;18.60;99.90
62339;DHT22;48368;53.406;6.214;2023-08-01T14:23:46;18.50;99.90
62339;DHT22;48368;53.406;6.214;2023-08-01T14:26:12;18.50;99.90
62339;DHT22;48368;53.406;6.214;2023-08-01T14:28:37;18.40;99.90
62339;DHT22;48368;53.406;6.214;2023-08-01T14:31:04;18.40;99.90
62339;DHT22;48368;53.406;6.214;2023-08-01T14:33:30;18.40;99.90
62339;DHT22;48368;53.406;6.214;2023-08-01T14:35:56;18.40;99.90
62339;DHT22;48368;53.406;6.214;2023-08-01T14:38:22;18.40;99.90
62339;DHT22;48368;53.406;6.214;2023-08-01T14:40:47;18.30;99.90
62339;DHT22;48368;53.406;6.214;2023-08-01T14:43:13;18.40;99.90
62339;DHT22;48368;53.406;6.214;2023-08-01T14:45:42;18.30;99.90
62339;DHT22;48368;53.406;6.214;2023-08-01T14:48:08;18.30;99.90
62339;DHT22;48368;53.406;6.214;2023-08-01T14:50:34;18.20;99.90
62339;DHT22;48368;53.406;6.214;2023-08-01T14:53:01;18.40;99.90
62339;DHT22;48368;53.406;6.214;2023-08-01T14:55:29;18.60;99.90
62339;DHT22;48368;53.406;6.214;2023-08-01T14:57:55;18.70;99.90
62339;DHT22;48368;53.406;6.214;2023-08-01T15:00:21;18.80;99.90
62339;DHT22;48368;53.406;6.214;2023-08-01T15:02:50;18.70;99.90
62339;DHT22;48368;53.406;6.214;2023-08-01T15:05:18;18.70;99.90
62339;DHT22;48368;53.406;6.214;2023-08-01T15:07:47;18.60;99.90
62339;DHT22;48368;53.406;6.214;2023-08-01T15:10:15;18.60;99.90
62339;DHT22;48368;53.406;6.214;2023-08-01T15:12:41;18.60;99.90
62339;DHT22;48368;53.406;6.214;2023-08-01T15:15:10;18.50;99.90
62339;DHT22;48368;53.406;6.214;2023-08-01T15:17:35;18.50;99.90
62339;DHT22;48368;53.406;6.214;2023-08-01T15:20:01;18.60;99.90
62339;DHT22;48368;53.406;6.214;2023-08-01T15:22:31;18.60;99.90
62339;DHT22;48368;53.406;6.214;2023-08-01T15:24:57;18.60;99.90
62339;DHT22;48368;53.406;6.214;2023-08-01T15:27:22;18.50;99.90
62339;DHT22;48368;53.406;6.214;2023-08-01T15:29:48;18.50;99.90
62339;DHT22;48368;53.406;6.214;2023-08-01T15:32:14;18.50;99.90
62339;DHT22;48368;53.406;6.214;2023-08-01T15:34:39;18.60;99.90
62339;DHT22;48368;53.406;6.214;2023-08-01T15:37:09;18.50;99.90